Time;durP1;ratioP1;P1;durP2;ratioP2;P2;SDS_P1;SDS_P2;PMS_P1;PMS_P2;Temp;Humidity;BMP_temperature;BMP_pressure;BME280_temperature;BME280_humidity;BME280_pressure;Samples;Min_cycle;Max_cycle;Signal;HPM_P1;HPM_P2
2021/08/27 00:01:47;;;;;;;2.33;0.47;;;13.70;90.90;;;;;;4996784;28;20411;-78
2021/08/27 00:04:13;;;;;;;3.63;0.50;;;13.70;90.90;;;;;;5007628;28;20022;-78
2021/08/27 00:06:39;;;;;;;5.15;0.60;;;13.70;91.00;;;;;;4991096;28;20030;-78
2021/08/27 00:09:04;;;;;;;7.95;0.50;;;13.70;91.00;;;;;;4992986;28;20033;-78
2021/08/27 00:11:30;;;;;;;3.95;0.50;;;13.60;91.10;;;;;;4992591;28;20121;-78
2021/08/27 00:13:56;;;;;;;4.22;0.63;;;13.70;91.40;;;;;;4992805;28;20549;-78
2021/08/27 00:16:21;;;;;;;5.07;0.68;;;13.60;91.20;;;;;;4992717;28;20053;-78
2021/08/27 00:18:47;;;;;;;1.63;0.50;;;13.60;91.20;;;;;;4992740;28;20065;-78
2021/08/27 00:21:13;;;;;;;6.18;0.70;;;13.50;91.20;;;;;;4993790;28;20130;-78
2021/08/27 00:23:38;;;;;;;3.97;0.55;;;13.50;91.20;;;;;;4992431;28;20494;-78
2021/08/27 00:26:04;;;;;;;4.90;0.60;;;13.50;91.30;;;;;;4993724;28;20088;-78
2021/08/27 00:28:30;;;;;;;5.75;0.85;;;13.50;91.30;;;;;;4993619;28;20042;-78
2021/08/27 00:30:57;;;;;;;4.78;0.40;;;13.50;91.30;;;;;;4993523;28;20034;-78
2021/08/27 00:33:24;;;;;;;4.30;0.52;;;13.50;91.30;;;;;;4992326;28;20030;-78
2021/08/27 00:35:50;;;;;;;4.78;0.50;;;13.60;91.30;;;;;;5008744;28;20030;-78
2021/08/27 00:38:16;;;;;;;5.18;0.75;;;13.60;91.30;;;;;;4995881;28;20033;-78
2021/08/27 00:40:43;;;;;;;7.35;0.73;;;13.60;91.30;;;;;;4996436;28;20114;-78
2021/08/27 00:43:12;;;;;;;4.38;0.80;;;13.60;91.40;;;;;;5012579;28;20022;-77
2021/08/27 00:45:38;;;;;;;3.35;1.05;;;13.60;91.40;;;;;;4996017;28;20069;-77
2021/08/27 00:48:04;;;;;;;3.15;0.40;;;13.60;91.40;;;;;;4996247;28;20105;-77
2021/08/27 00:50:30;;;;;;;2.83;0.50;;;13.60;91.40;;;;;;4995972;28;20121;-77
2021/08/27 00:52:55;;;;;;;5.30;0.80;;;13.60;91.40;;;;;;4996079;28;20026;-77
2021/08/27 00:55:21;;;;;;;3.90;0.57;;;13.50;91.40;;;;;;4995887;28;20030;-78
2021/08/27 00:57:47;;;;;;;10.25;0.60;;;13.50;91.40;;;;;;4996063;28;20058;-78
2021/08/27 01:00:13;;;;;;;6.20;0.77;;;13.50;91.50;;;;;;5012149;28;20032;-78
2021/08/27 01:02:39;;;;;;;4.45;0.88;;;13.50;91.50;;;;;;4995940;28;20545;-78
2021/08/27 01:05:07;;;;;;;7.95;0.60;;;13.40;91.50;;;;;;4995770;28;20035;-78
2021/08/27 01:07:43;;;;;;;3.13;0.60;;;13.40;91.50;;;;;;4996977;28;20045;-78
2021/08/27 01:10:36;;;;;;;4.97;0.50;;;13.40;91.50;;;;;;4995655;28;20030;-78
2021/08/27 01:13:14;;;;;;;5.68;0.60;;;13.40;91.60;;;;;;5012304;28;20026;-78
2021/08/27 01:15:46;;;;;;;7.60;0.75;;;13.30;91.50;;;;;;4996655;28;20042;-78
2021/08/27 01:18:30;;;;;;;3.20;0.47;;;13.30;91.60;;;;;;4996747;28;20030;-78
2021/08/27 01:21:16;;;;;;;7.22;1.30;;;13.30;91.60;;;;;;4996691;28;20057;-78
2021/08/27 01:23:48;;;;;;;4.15;1.00;;;13.20;91.60;;;;;;4996734;28;20109;-78
2021/08/27 01:26:18;;;;;;;6.40;0.68;;;13.20;91.70;;;;;;5011722;28;20036;-78
2021/08/27 01:28:49;;;;;;;5.47;0.68;;;13.10;91.70;;;;;;5011658;28;20042;-77
2021/08/27 01:31:40;;;;;;;5.97;0.95;;;13.10;91.70;;;;;;4996546;28;20034;-78
2021/08/27 01:34:24;;;;;;;5.15;0.63;;;13.00;91.80;;;;;;5011449;28;20113;-78
2021/08/27 01:36:51;;;;;;;4.45;0.73;;;13.00;91.80;;;;;;4996489;28;20077;-78
2021/08/27 01:39:18;;;;;;;4.88;0.85;;;13.00;91.90;;;;;;4996422;28;20026;-78
2021/08/27 01:41:48;;;;;;;5.88;0.50;;;12.90;91.90;;;;;;5011453;28;20027;-78
2021/08/27 01:44:14;;;;;;;4.35;0.82;;;13.00;92.10;;;;;;4995366;28;20475;-78
2021/08/27 01:46:42;;;;;;;3.78;0.70;;;12.90;92.10;;;;;;4995374;28;20038;-78
2021/08/27 01:49:12;;;;;;;7.03;0.90;;;12.90;92.20;;;;;;4994592;28;20026;-78
2021/08/27 01:51:40;;;;;;;5.43;1.08;;;12.90;92.30;;;;;;4995062;28;20054;-78
2021/08/27 01:54:07;;;;;;;4.38;0.60;;;12.90;92.40;;;;;;5011117;28;20028;-78
2021/08/27 01:56:36;;;;;;;5.70;1.13;;;12.90;92.40;;;;;;4978633;28;20054;-78
2021/08/27 01:59:03;;;;;;;4.07;0.60;;;12.90;92.50;;;;;;5011412;28;20026;-78
2021/08/27 02:01:30;;;;;;;8.52;0.63;;;12.90;92.60;;;;;;5010993;28;20414;-78
2021/08/27 02:04:00;;;;;;;3.00;0.75;;;12.80;92.60;;;;;;4994825;28;20096;-78
2021/08/27 02:06:26;;;;;;;8.10;1.33;;;12.80;92.80;;;;;;4995767;28;20057;-78
2021/08/27 02:08:53;;;;;;;5.65;0.60;;;12.80;92.90;;;;;;4978370;28;20525;-79
2021/08/27 02:11:19;;;;;;;7.20;0.60;;;12.80;93.00;;;;;;4994579;28;20395;-78
2021/08/27 02:13:46;;;;;;;3.45;0.60;;;12.90;93.10;;;;;;4994540;28;20033;-79
2021/08/27 02:16:13;;;;;;;8.20;0.60;;;12.80;93.10;;;;;;4994522;28;20078;-78
2021/08/27 02:18:39;;;;;;;7.55;0.80;;;12.80;93.50;;;;;;4994727;28;20026;-79
2021/08/27 02:21:06;;;;;;;5.75;1.08;;;12.80;93.40;;;;;;4995653;28;20033;-79
2021/08/27 02:23:34;;;;;;;6.28;0.90;;;12.80;93.50;;;;;;4995767;28;20027;-79
2021/08/27 02:26:02;;;;;;;8.20;0.88;;;12.80;93.60;;;;;;4994433;28;20034;-78
2021/08/27 02:28:29;;;;;;;7.97;0.60;;;12.80;93.70;;;;;;4995726;28;20538;-78
2021/08/27 02:30:55;;;;;;;4.30;0.70;;;12.90;93.70;;;;;;4995630;28;20290;-78
2021/08/27 02:33:23;;;;;;;6.35;1.17;;;12.90;93.70;;;;;;4994456;28;20117;-79
2021/08/27 02:35:49;;;;;;;5.05;0.50;;;12.80;93.60;;;;;;4995413;28;20041;-78
2021/08/27 02:38:19;;;;;;;9.20;1.40;;;12.90;93.60;;;;;;4995374;28;20427;-78
2021/08/27 02:40:45;;;;;;;7.80;0.75;;;12.90;93.60;;;;;;5010426;28;20023;-78
2021/08/27 02:43:10;;;;;;;7.13;0.82;;;13.00;93.60;;;;;;5010355;28;20033;-79
2021/08/27 02:45:36;;;;;;;6.57;0.75;;;13.00;93.90;;;;;;4995179;28;20433;-78
2021/08/27 02:48:02;;;;;;;6.00;0.60;;;13.00;93.70;;;;;;4995338;28;20030;-78
2021/08/27 02:50:31;;;;;;;5.20;0.70;;;13.00;93.70;;;;;;4995120;28;20396;-79
2021/08/27 02:53:04;;;;;;;3.08;0.60;;;13.00;93.70;;;;;;4993846;28;20027;-79
2021/08/27 02:55:35;;;;;;;4.35;0.80;;;13.10;93.70;;;;;;5010034;28;20030;-79
2021/08/27 02:58:05;;;;;;;5.63;0.77;;;13.10;93.80;;;;;;4993926;28;20517;-78
2021/08/27 03:00:38;;;;;;;4.90;0.73;;;13.10;93.80;;;;;;5009306;28;20026;-78
2021/08/27 03:03:06;;;;;;;5.93;0.70;;;13.00;93.80;;;;;;4994879;28;20033;-79
2021/08/27 03:05:38;;;;;;;3.53;0.80;;;13.10;93.80;;;;;;4977555;28;20026;-78
2021/08/27 03:08:07;;;;;;;5.53;0.60;;;13.00;93.80;;;;;;4994746;28;20035;-78
2021/08/27 03:10:44;;;;;;;4.65;0.52;;;13.10;93.80;;;;;;4994704;28;20112;-78
2021/08/27 03:13:13;;;;;;;4.85;0.73;;;13.10;93.90;;;;;;4995021;28;20072;-78
2021/08/27 03:15:47;;;;;;;4.55;0.60;;;13.10;93.90;;;;;;4994751;28;20049;-78
2021/08/27 03:18:18;;;;;;;4.35;0.50;;;13.10;94.00;;;;;;4993387;28;20037;-78
2021/08/27 03:20:59;;;;;;;6.18;0.75;;;13.10;94.00;;;;;;5009178;28;20076;-78
2021/08/27 03:23:29;;;;;;;4.57;0.80;;;13.20;94.00;;;;;;4997989;28;20025;-78
2021/08/27 03:25:58;;;;;;;3.38;0.60;;;13.20;94.00;;;;;;4994401;28;20030;-78
2021/08/27 03:28:27;;;;;;;9.88;1.17;;;13.30;94.00;;;;;;4993224;28;20360;-78
2021/08/27 03:30:54;;;;;;;4.35;0.60;;;13.30;94.10;;;;;;5009712;28;20048;-77
2021/08/27 03:33:22;;;;;;;5.03;0.93;;;13.40;94.10;;;;;;4994738;28;20494;-78
2021/08/27 03:35:50;;;;;;;8.20;0.70;;;13.40;94.20;;;;;;5009628;28;20031;-78
2021/08/27 03:38:17;;;;;;;4.85;0.65;;;13.40;94.20;;;;;;4994662;28;20033;-78
2021/08/27 03:40:44;;;;;;;4.90;0.68;;;13.50;94.20;;;;;;5009771;28;20038;-78
2021/08/27 03:43:10;;;;;;;4.85;0.60;;;13.50;94.20;;;;;;5009462;28;20026;-78
2021/08/27 03:45:37;;;;;;;5.00;0.98;;;13.50;94.20;;;;;;4992905;28;20030;-78
2021/08/27 03:48:03;;;;;;;8.25;0.90;;;13.60;94.20;;;;;;4994391;28;20031;-78
2021/08/27 03:50:29;;;;;;;3.35;0.40;;;13.60;94.20;;;;;;4993143;28;20022;-78
2021/08/27 03:52:55;;;;;;;8.23;0.68;;;13.70;94.20;;;;;;4993116;28;20030;-77
2021/08/27 03:55:22;;;;;;;5.00;0.80;;;13.70;94.20;;;;;;5009450;28;20096;-79
2021/08/27 03:57:49;;;;;;;8.38;0.50;;;13.70;94.10;;;;;;4994365;28;20084;-78
2021/08/27 04:00:19;;;;;;;6.45;0.70;;;13.70;94.10;;;;;;4992849;28;20022;-78
2021/08/27 04:02:47;;;;;;;7.00;1.08;;;13.70;94.00;;;;;;4992759;28;20022;-78
2021/08/27 04:05:19;;;;;;;5.25;0.50;;;13.80;93.90;;;;;;4994152;28;20471;-79
2021/08/27 04:07:46;;;;;;;4.20;0.60;;;13.80;93.90;;;;;;4994014;28;20018;-78
2021/08/27 04:10:14;;;;;;;6.45;0.50;;;13.80;93.90;;;;;;5009105;28;20774;-79
2021/08/27 04:12:40;;;;;;;6.25;0.70;;;13.80;93.80;;;;;;4994021;28;20031;-78
2021/08/27 04:15:12;;;;;;;8.02;1.65;;;13.80;93.80;;;;;;4993646;28;20053;-76
2021/08/27 04:17:40;;;;;;;4.50;0.60;;;13.80;93.70;;;;;;5012372;28;20006;-79
2021/08/27 04:20:08;;;;;;;9.82;0.98;;;13.90;93.70;;;;;;5013217;28;20018;-79
2021/08/27 04:22:34;;;;;;;5.85;0.70;;;13.80;93.60;;;;;;5015404;28;20066;-79
2021/08/27 04:25:00;;;;;;;3.70;0.98;;;13.80;93.50;;;;;;5013262;28;20496;-78
2021/08/27 04:27:25;;;;;;;7.72;0.98;;;13.80;93.50;;;;;;5011861;28;20030;-77
2021/08/27 04:29:51;;;;;;;4.20;0.60;;;13.80;93.50;;;;;;5030127;28;20133;-78
2021/08/27 04:32:18;;;;;;;5.35;0.68;;;13.80;93.50;;;;;;5031998;28;20034;-78
2021/08/27 04:34:44;;;;;;;4.97;0.70;;;13.70;93.50;;;;;;5031842;28;20075;-79
2021/08/27 04:37:09;;;;;;;6.47;0.77;;;13.70;93.50;;;;;;5031900;28;20377;-80
2021/08/27 04:39:35;;;;;;;3.75;0.43;;;13.70;93.60;;;;;;5031628;28;20068;-78
2021/08/27 04:42:02;;;;;;;7.50;0.98;;;13.60;93.60;;;;;;5033322;28;20479;-77
2021/08/27 04:44:28;;;;;;;3.22;0.52;;;13.60;93.60;;;;;;5031708;28;20053;-78
2021/08/27 04:46:53;;;;;;;7.35;0.73;;;13.60;93.60;;;;;;5015171;28;20060;-78
2021/08/27 04:49:19;;;;;;;3.38;0.60;;;13.60;93.60;;;;;;5031732;28;20030;-79
2021/08/27 04:51:44;;;;;;;7.97;0.70;;;13.60;93.70;;;;;;5015129;28;20026;-78
2021/08/27 04:54:10;;;;;;;5.65;0.57;;;13.60;93.70;;;;;;5031761;28;20029;-79
2021/08/27 04:56:36;;;;;;;7.25;0.88;;;13.70;93.80;;;;;;5031662;28;20052;-79
2021/08/27 04:59:01;;;;;;;5.63;0.70;;;13.70;93.90;;;;;;5023620;28;20091;-79
2021/08/27 05:01:27;;;;;;;10.18;0.73;;;13.70;93.80;;;;;;5011543;28;20508;-79
2021/08/27 05:03:53;;;;;;;3.33;0.60;;;13.80;93.90;;;;;;4995146;28;20029;-79
2021/08/27 05:06:19;;;;;;;3.22;0.43;;;13.80;93.90;;;;;;5012736;28;20036;-80
2021/08/27 05:08:44;;;;;;;7.32;1.15;;;13.80;93.90;;;;;;4995210;28;20030;-78
2021/08/27 05:11:10;;;;;;;4.93;0.60;;;13.90;93.90;;;;;;4995384;28;20084;-80
2021/08/27 05:13:36;;;;;;;4.85;0.70;;;14.00;93.80;;;;;;5012978;28;20029;-78
2021/08/27 05:16:02;;;;;;;5.15;0.80;;;14.00;93.80;;;;;;5011736;28;20129;-78
2021/08/27 05:18:29;;;;;;;4.70;0.65;;;14.00;93.70;;;;;;4995184;28;20092;-78
2021/08/27 05:20:56;;;;;;;8.07;0.90;;;14.10;93.80;;;;;;5011676;28;20026;-78
2021/08/27 05:23:22;;;;;;;5.97;0.52;;;14.10;93.70;;;;;;5013493;28;20028;-78
2021/08/27 05:25:47;;;;;;;4.28;0.60;;;14.10;93.70;;;;;;4998990;28;20129;-79
2021/08/27 05:28:13;;;;;;;5.22;0.55;;;14.20;93.70;;;;;;4998861;28;20029;-79
2021/08/27 05:30:38;;;;;;;6.68;1.17;;;14.20;93.60;;;;;;5015325;28;20030;-79
2021/08/27 05:33:04;;;;;;;5.13;0.50;;;14.20;93.60;;;;;;5015147;28;20029;-78
2021/08/27 05:35:30;;;;;;;7.07;0.70;;;14.30;93.60;;;;;;4998541;28;20501;-78
2021/08/27 05:37:55;;;;;;;3.50;0.65;;;14.30;93.60;;;;;;5014950;28;20092;-76
2021/08/27 05:40:21;;;;;;;4.68;0.60;;;14.30;93.60;;;;;;5014964;28;20421;-80
2021/08/27 05:42:46;;;;;;;5.57;0.65;;;14.30;93.60;;;;;;5016246;28;20029;-79
2021/08/27 05:45:14;;;;;;;7.55;0.75;;;14.30;93.70;;;;;;4998431;28;20030;-79
2021/08/27 05:47:42;;;;;;;4.72;0.77;;;14.40;93.70;;;;;;5015983;28;20026;-79
2021/08/27 05:50:09;;;;;;;2.78;0.57;;;14.40;93.80;;;;;;4998584;28;20117;-79
2021/08/27 05:52:35;;;;;;;2.20;0.50;;;14.40;93.80;;;;;;5031247;28;20092;-79
2021/08/27 05:55:02;;;;;;;4.32;0.65;;;14.40;93.70;;;;;;5014549;28;20028;-79
2021/08/27 05:57:28;;;;;;;4.15;1.05;;;14.40;93.70;;;;;;5014534;28;20025;-80
2021/08/27 05:59:54;;;;;;;3.13;0.60;;;14.50;93.80;;;;;;4998342;28;20382;-78
2021/08/27 06:02:20;;;;;;;3.58;0.68;;;14.40;93.70;;;;;;4998103;28;20033;-79
2021/08/27 06:04:45;;;;;;;4.65;1.00;;;14.50;93.80;;;;;;5014460;28;20041;-79
2021/08/27 06:07:12;;;;;;;5.43;0.50;;;14.60;93.90;;;;;;5014371;28;20022;-80
2021/08/27 06:09:38;;;;;;;4.10;0.60;;;14.60;93.80;;;;;;5015583;28;20022;-78
2021/08/27 06:12:04;;;;;;;3.05;0.75;;;14.70;93.80;;;;;;4998013;28;20095;-77
2021/08/27 06:14:30;;;;;;;2.45;0.60;;;14.80;93.80;;;;;;5015351;28;20069;-77
2021/08/27 06:16:55;;;;;;;3.65;0.73;;;14.80;93.70;;;;;;5014278;28;20491;-79
2021/08/27 06:19:21;;;;;;;7.22;0.63;;;14.90;93.70;;;;;;5014284;28;20026;-80
2021/08/27 06:21:46;;;;;;;5.93;0.60;;;14.90;93.60;;;;;;5030657;28;20362;-79
2021/08/27 06:24:12;;;;;;;3.00;0.73;;;15.00;93.50;;;;;;4997891;28;20478;-79
2021/08/27 06:26:37;;;;;;;8.45;0.85;;;15.10;93.70;;;;;;4997736;28;20069;-79
2021/08/27 06:29:04;;;;;;;4.78;0.70;;;15.20;93.40;;;;;;4997559;28;20128;-77
2021/08/27 06:31:32;;;;;;;6.25;0.40;;;15.20;93.60;;;;;;5014008;28;20041;-78
2021/08/27 06:33:57;;;;;;;4.30;1.08;;;15.20;93.30;;;;;;5013844;28;20071;-78
2021/08/27 06:36:23;;;;;;;4.20;0.70;;;15.20;93.20;;;;;;4997461;28;20397;-79
2021/08/27 06:38:49;;;;;;;5.72;0.60;;;15.20;93.10;;;;;;5015140;28;20030;-77
2021/08/27 06:41:15;;;;;;;3.03;0.50;;;15.30;93.10;;;;;;5013821;28;20363;-78
2021/08/27 06:43:43;;;;;;;3.53;0.77;;;15.30;93.10;;;;;;5014016;28;20478;-78
2021/08/27 06:46:23;;;;;;;2.58;0.50;;;15.30;93.00;;;;;;5013428;28;20026;-78
2021/08/27 06:48:50;;;;;;;4.13;0.52;;;15.40;93.00;;;;;;5014940;28;20435;-78
2021/08/27 06:51:16;;;;;;;4.50;0.73;;;15.40;92.90;;;;;;4997254;28;20026;-79
2021/08/27 06:53:41;;;;;;;5.35;0.80;;;15.50;93.00;;;;;;4997299;28;20128;-79
2021/08/27 06:56:07;;;;;;;5.28;0.50;;;15.50;92.70;;;;;;5014690;28;20029;-82
2021/08/27 06:58:33;;;;;;;7.30;0.70;;;15.60;92.70;;;;;;5013309;28;20018;-78
2021/08/27 07:00:58;;;;;;;5.15;0.70;;;15.70;92.70;;;;;;4980905;28;20018;-78
2021/08/27 07:03:24;;;;;;;4.07;0.70;;;15.70;92.60;;;;;;5014465;28;20037;-80
2021/08/27 07:05:50;;;;;;;5.20;0.70;;;15.80;92.50;;;;;;5014487;28;20096;-78
2021/08/27 07:08:16;;;;;;;8.95;0.90;;;15.80;92.40;;;;;;5013302;28;20022;-79
2021/08/27 07:10:42;;;;;;;5.63;0.77;;;15.90;92.40;;;;;;5013454;28;20030;-78
2021/08/27 07:13:11;;;;;;;5.57;0.60;;;15.90;92.20;;;;;;5014420;28;20030;-81
2021/08/27 07:15:37;;;;;;;7.28;0.73;;;16.00;92.10;;;;;;5012808;28;20046;-81
2021/08/27 07:18:03;;;;;;;7.20;0.68;;;16.00;92.10;;;;;;4996655;28;20026;-79
2021/08/27 07:20:29;;;;;;;6.40;0.80;;;16.10;92.00;;;;;;5014355;28;20026;-81
2021/08/27 07:22:55;;;;;;;4.22;0.80;;;16.10;91.80;;;;;;5013070;28;20030;-78
2021/08/27 07:25:21;;;;;;;3.10;0.60;;;16.10;92.10;;;;;;5012926;28;20029;-75
2021/08/27 07:27:48;;;;;;;4.07;0.57;;;16.10;91.90;;;;;;5014073;28;20032;-79
2021/08/27 07:30:15;;;;;;;7.13;0.68;;;16.10;91.60;;;;;;5014158;28;20033;-75
2021/08/27 07:32:41;;;;;;;5.32;0.68;;;16.20;91.60;;;;;;4996502;28;20402;-78
2021/08/27 07:35:08;;;;;;;7.30;0.60;;;16.30;91.60;;;;;;5012772;28;20033;-81
2021/08/27 07:37:33;;;;;;;8.02;0.70;;;16.30;91.40;;;;;;5012804;28;20112;-80
2021/08/27 07:39:59;;;;;;;2.03;0.60;;;16.40;91.40;;;;;;4996485;28;20049;-80
2021/08/27 07:42:25;;;;;;;3.95;0.63;;;16.50;91.30;;;;;;5012716;28;20492;-81
2021/08/27 07:44:50;;;;;;;5.32;0.88;;;16.60;91.20;;;;;;5013843;28;20080;-80
2021/08/27 07:47:16;;;;;;;7.93;1.13;;;16.70;91.10;;;;;;5012569;28;20030;-81
2021/08/27 07:49:42;;;;;;;2.65;0.70;;;16.70;90.80;;;;;;5014046;28;20101;-75
2021/08/27 07:52:07;;;;;;;5.55;0.80;;;16.70;90.70;;;;;;5013734;28;20536;-78
2021/08/27 07:54:33;;;;;;;3.03;0.68;;;16.80;90.70;;;;;;5014758;28;20041;-79
2021/08/27 07:56:59;;;;;;;6.28;0.80;;;16.90;90.60;;;;;;5012116;28;20038;-76
2021/08/27 07:59:25;;;;;;;4.75;0.50;;;17.00;90.60;;;;;;5011766;28;20471;-83
2021/08/27 08:01:52;;;;;;;7.63;0.60;;;17.00;90.30;;;;;;5014487;28;20482;-80
2021/08/27 08:04:18;;;;;;;3.50;0.63;;;17.10;90.40;;;;;;5012509;28;20025;-81
2021/08/27 08:06:43;;;;;;;2.67;0.60;;;17.20;90.30;;;;;;4995464;28;20037;-80
2021/08/27 08:09:09;;;;;;;5.43;0.65;;;17.30;90.20;;;;;;5011521;28;20084;-80
2021/08/27 08:11:35;;;;;;;4.80;0.90;;;17.40;90.20;;;;;;5012467;28;20041;-78
2021/08/27 08:14:01;;;;;;;5.07;0.98;;;17.40;90.00;;;;;;5012820;28;20440;-76
2021/08/27 08:16:27;;;;;;;2.75;0.68;;;17.50;89.50;;;;;;5014443;28;20045;-78
2021/08/27 08:18:53;;;;;;;6.30;1.13;;;17.50;89.20;;;;;;5019675;28;20041;-80
2021/08/27 08:21:22;;;;;;;4.03;0.60;;;17.50;89.40;;;;;;5011349;28;20022;-81
2021/08/27 08:23:49;;;;;;;2.58;0.55;;;17.60;88.70;;;;;;5013431;28;20433;-79
2021/08/27 08:26:15;;;;;;;6.00;0.90;;;17.60;88.40;;;;;;4995751;28;20040;-80
2021/08/27 08:28:41;;;;;;;5.03;1.02;;;17.70;88.30;;;;;;4995948;28;20033;-77
2021/08/27 08:31:07;;;;;;;6.03;0.70;;;17.70;88.20;;;;;;4995779;28;20033;-77
2021/08/27 08:33:32;;;;;;;5.85;0.70;;;17.80;88.20;;;;;;5013490;28;20040;-78
2021/08/27 08:35:58;;;;;;;6.28;0.80;;;17.90;87.90;;;;;;5003468;28;20390;-77
2021/08/27 08:38:24;;;;;;;5.38;1.15;;;17.90;87.50;;;;;;5012879;28;20050;-76
2021/08/27 08:40:50;;;;;;;5.85;0.93;;;17.80;87.00;;;;;;4979821;28;20042;-78
2021/08/27 08:43:15;;;;;;;6.25;1.17;;;17.90;86.80;;;;;;4980996;28;20018;-77
2021/08/27 08:45:50;;;;;;;4.30;1.13;;;17.90;86.40;;;;;;5003287;28;20033;-77
2021/08/27 08:48:20;;;;;;;3.65;1.13;;;17.90;86.30;;;;;;5012229;28;20128;-77
2021/08/27 08:50:46;;;;;;;4.95;0.77;;;17.90;86.90;;;;;;5011337;28;20022;-79
2021/08/27 08:53:12;;;;;;;6.63;1.05;;;18.00;86.20;;;;;;5004128;28;20517;-76
2021/08/27 08:55:40;;;;;;;5.90;0.90;;;18.10;86.00;;;;;;5013035;28;20537;-77
2021/08/27 08:58:06;;;;;;;4.65;0.90;;;18.20;85.40;;;;;;5010119;28;20466;-77
2021/08/27 09:00:32;;;;;;;5.60;0.70;;;18.20;84.90;;;;;;5016519;28;20028;-77
2021/08/27 09:02:59;;;;;;;4.70;0.90;;;18.30;85.20;;;;;;5015649;28;20022;-76
2021/08/27 09:05:25;;;;;;;7.20;0.82;;;18.40;84.60;;;;;;5015401;28;20030;-78
2021/08/27 09:07:53;;;;;;;5.00;0.95;;;18.40;84.60;;;;;;4999168;28;20026;-77
2021/08/27 09:10:23;;;;;;;4.05;0.80;;;18.40;84.50;;;;;;5015528;28;20088;-77
2021/08/27 09:12:51;;;;;;;6.60;0.82;;;18.50;84.40;;;;;;5016905;28;20096;-80
2021/08/27 09:15:20;;;;;;;6.97;0.90;;;18.50;84.50;;;;;;5016771;28;20095;-77
2021/08/27 09:17:51;;;;;;;5.03;1.08;;;18.50;83.80;;;;;;5016631;28;20080;-79
2021/08/27 09:20:19;;;;;;;7.65;0.70;;;18.40;83.90;;;;;;5015472;28;20025;-79
2021/08/27 09:22:55;;;;;;;6.72;0.95;;;18.40;83.60;;;;;;5016442;28;20155;-78
2021/08/27 09:25:23;;;;;;;6.50;1.10;;;18.40;83.90;;;;;;5014633;28;20544;-80
2021/08/27 09:28:12;;;;;;;8.48;0.90;;;18.50;83.80;;;;;;5006611;28;20026;-79
2021/08/27 09:30:47;;;;;;;6.85;1.20;;;18.50;83.90;;;;;;5014807;28;20030;-76
2021/08/27 09:33:16;;;;;;;3.33;0.70;;;18.70;83.30;;;;;;5016097;28;20026;-77
2021/08/27 09:35:53;;;;;;;6.47;0.70;;;18.80;83.10;;;;;;5014650;28;20454;-82
2021/08/27 09:38:19;;;;;;;5.40;1.17;;;19.00;81.50;;;;;;5031108;28;20022;-81
2021/08/27 09:40:48;;;;;;;6.22;0.80;;;19.10;81.30;;;;;;4998728;28;20034;-83
2021/08/27 09:43:24;;;;;;;7.03;1.00;;;19.20;80.50;;;;;;5016129;28;20026;-82
2021/08/27 09:45:50;;;;;;;8.70;1.40;;;19.20;80.40;;;;;;5015002;28;20050;-78
2021/08/27 09:48:15;;;;;;;7.35;1.25;;;19.30;79.50;;;;;;5014914;28;20076;-81
2021/08/27 09:50:44;;;;;;;8.98;0.80;;;19.30;79.50;;;;;;5014948;28;20025;-78
2021/08/27 09:53:12;;;;;;;6.05;1.00;;;19.30;79.40;;;;;;5014775;28;20018;-80
2021/08/27 09:55:52;;;;;;;6.82;0.85;;;19.40;79.50;;;;;;5014759;28;20037;-81
2021/08/27 09:58:17;;;;;;;5.18;0.98;;;19.60;79.00;;;;;;5015915;28;20026;-79
2021/08/27 10:00:47;;;;;;;9.43;1.42;;;19.80;78.50;;;;;;5014673;28;20049;-77
2021/08/27 10:03:26;;;;;;;4.40;0.65;;;19.90;77.80;;;;;;5014596;28;20113;-79
2021/08/27 10:05:56;;;;;;;4.18;0.80;;;19.90;76.70;;;;;;5015910;28;20018;-77
2021/08/27 10:08:28;;;;;;;3.50;0.95;;;19.90;75.20;;;;;;5014395;28;20042;-82
2021/08/27 10:11:17;;;;;;;5.43;1.02;;;19.80;75.00;;;;;;5015578;28;20025;-78
2021/08/27 10:13:44;;;;;;;5.10;1.30;;;19.70;75.60;;;;;;5013925;28;20051;-84
2021/08/27 10:16:10;;;;;;;4.95;0.57;;;19.80;75.80;;;;;;5015119;28;20391;-84
2021/08/27 10:18:36;;;;;;;5.18;0.73;;;19.80;75.50;;;;;;5015274;28;20032;-81
2021/08/27 10:21:04;;;;;;;6.93;1.00;;;19.90;75.40;;;;;;5015198;28;20030;-81
2021/08/27 10:23:30;;;;;;;8.07;1.50;;;19.90;77.10;;;;;;5014915;28;20033;-82
2021/08/27 10:25:56;;;;;;;5.57;1.00;;;19.60;80.20;;;;;;4997499;28;20117;-81
2021/08/27 10:28:28;;;;;;;7.05;1.30;;;19.30;81.60;;;;;;5020680;28;20030;-83
2021/08/27 10:30:58;;;;;;;6.80;0.88;;;19.00;82.60;;;;;;5030619;28;20045;-83
2021/08/27 10:33:42;;;;;;;5.00;0.98;;;18.70;83.50;;;;;;5014053;28;20041;-82
2021/08/27 10:36:29;;;;;;;4.13;0.80;;;18.50;84.60;;;;;;5015025;28;20022;-80
2021/08/27 10:38:56;;;;;;;6.18;0.98;;;18.50;86.00;;;;;;5015066;28;20034;-79
2021/08/27 10:41:32;;;;;;;6.35;1.02;;;18.50;86.50;;;;;;5013558;28;20030;-82
2021/08/27 10:44:18;;;;;;;2.33;0.60;;;18.60;86.80;;;;;;5014867;28;20026;-84
2021/08/27 10:46:46;;;;;;;4.97;0.65;;;18.90;87.30;;;;;;5013426;28;20069;-82
2021/08/27 10:49:32;;;;;;;2.97;0.50;;;19.20;87.50;;;;;;5014804;28;20116;-80
2021/08/27 10:51:57;;;;;;;3.22;0.45;;;19.40;87.10;;;;;;5012147;28;20030;-81
2021/08/27 10:54:23;;;;;;;2.33;0.50;;;19.70;86.00;;;;;;5013495;28;20029;-83
2021/08/27 10:56:55;;;;;;;2.30;0.40;;;19.80;85.50;;;;;;5013454;28;20037;-82
2021/08/27 10:59:23;;;;;;;3.95;0.40;;;19.90;84.50;;;;;;5013609;28;20473;-81
2021/08/27 11:01:58;;;;;;;3.33;0.50;;;20.00;83.20;;;;;;5013457;28;20028;-78
2021/08/27 11:04:28;;;;;;;3.85;0.63;;;20.30;83.20;;;;;;5014678;28;20096;-78
2021/08/27 11:06:55;;;;;;;2.30;0.40;;;20.70;82.80;;;;;;4997053;28;20053;-76
2021/08/27 11:09:28;;;;;;;3.38;0.50;;;21.20;82.40;;;;;;5014626;28;20080;-78
2021/08/27 11:12:16;;;;;;;2.63;0.50;;;21.90;81.80;;;;;;5014336;28;20112;-77
2021/08/27 11:14:45;;;;;;;4.13;0.50;;;22.40;78.40;;;;;;5013057;28;20030;-77
2021/08/27 11:17:11;;;;;;;2.50;0.40;;;22.60;77.20;;;;;;5013107;28;20034;-77
2021/08/27 11:19:59;;;;;;;3.75;0.50;;;23.10;76.80;;;;;;5014058;28;20038;-78
2021/08/27 11:22:31;;;;;;;2.95;0.40;;;23.30;74.40;;;;;;5014144;28;20033;-75
2021/08/27 11:25:15;;;;;;;3.50;0.50;;;23.20;73.00;;;;;;5014326;28;20050;-78
2021/08/27 11:28:14;;;;;;;2.63;0.40;;;23.00;71.20;;;;;;5014287;28;20026;-76
2021/08/27 11:30:44;;;;;;;5.05;0.68;;;22.70;70.60;;;;;;5014292;28;20069;-76
2021/08/27 11:33:41;;;;;;;4.82;0.60;;;22.40;71.00;;;;;;5013020;28;20026;-77
2021/08/27 11:36:11;;;;;;;2.80;0.52;;;22.70;72.50;;;;;;5012763;28;20036;-77
2021/08/27 11:38:36;;;;;;;4.38;0.60;;;23.30;72.60;;;;;;5012843;28;20457;-77
2021/08/27 11:41:03;;;;;;;5.65;0.70;;;24.10;71.80;;;;;;5012828;28;20021;-77
2021/08/27 11:43:33;;;;;;;5.80;0.73;;;24.90;70.00;;;;;;4996460;28;20026;-77
2021/08/27 11:46:00;;;;;;;4.30;0.90;;;25.60;66.20;;;;;;5013761;28;20036;-78
2021/08/27 11:48:32;;;;;;;3.97;0.68;;;26.20;64.20;;;;;;5013974;28;20500;-78
2021/08/27 11:50:59;;;;;;;2.70;0.60;;;26.50;61.00;;;;;;5013765;28;20034;-76
2021/08/27 11:53:28;;;;;;;4.53;0.65;;;27.00;59.20;;;;;;4996225;28;20137;-78
2021/08/27 11:55:54;;;;;;;6.18;1.00;;;27.20;57.30;;;;;;4996386;28;20129;-76
2021/08/27 11:58:20;;;;;;;6.18;1.00;;;26.90;54.50;;;;;;5012649;28;20504;-77
2021/08/27 12:00:49;;;;;;;4.93;1.00;;;26.50;54.70;;;;;;4996140;28;20386;-78
2021/08/27 12:03:17;;;;;;;4.70;0.90;;;26.10;55.80;;;;;;5012674;28;20026;-78
2021/08/27 12:05:43;;;;;;;4.53;0.85;;;26.00;55.90;;;;;;5013753;28;20337;-77
2021/08/27 12:08:11;;;;;;;4.93;0.90;;;25.70;55.90;;;;;;5012740;28;20112;-77
2021/08/27 12:10:38;;;;;;;4.40;0.98;;;25.50;56.80;;;;;;4996339;28;20081;-77
2021/08/27 12:13:06;;;;;;;3.70;0.85;;;25.60;56.50;;;;;;4996209;28;20462;-77
2021/08/27 12:15:37;;;;;;;6.38;1.10;;;25.40;56.30;;;;;;5011085;28;20046;-76
2021/08/27 12:18:05;;;;;;;4.40;0.90;;;25.10;56.60;;;;;;5010086;28;20375;-78
2021/08/27 12:20:36;;;;;;;6.68;1.00;;;24.90;57.30;;;;;;5011390;28;20088;-78
2021/08/27 12:23:14;;;;;;;6.65;1.20;;;25.20;57.50;;;;;;5013374;28;20026;-77
2021/08/27 12:25:45;;;;;;;5.90;1.08;;;25.30;56.30;;;;;;5013554;28;20488;-80
2021/08/27 12:28:15;;;;;;;5.90;0.90;;;25.30;56.60;;;;;;5013368;28;20053;-76
2021/08/27 12:30:54;;;;;;;6.35;1.02;;;25.70;56.80;;;;;;5012417;28;20068;-76
2021/08/27 12:33:20;;;;;;;4.78;0.80;;;26.30;55.80;;;;;;5017039;28;20108;-77
2021/08/27 12:35:48;;;;;;;5.28;1.08;;;26.50;55.40;;;;;;4999844;28;20033;-77
2021/08/27 12:38:17;;;;;;;6.95;0.98;;;26.40;53.70;;;;;;5017255;28;20390;-77
2021/08/27 12:40:43;;;;;;;5.93;1.30;;;26.00;53.40;;;;;;5016089;28;20351;-77
2021/08/27 12:43:21;;;;;;;7.07;1.42;;;25.80;54.10;;;;;;5017368;28;20026;-75
2021/08/27 12:45:56;;;;;;;6.60;0.85;;;25.60;55.00;;;;;;5015992;28;20077;-77
2021/08/27 12:48:24;;;;;;;8.15;1.10;;;25.60;55.60;;;;;;5015937;28;20429;-76
2021/08/27 12:51:05;;;;;;;5.20;1.08;;;25.70;55.40;;;;;;5016894;28;20064;-76
2021/08/27 12:53:34;;;;;;;5.78;1.13;;;25.90;54.00;;;;;;5016936;28;20065;-77
2021/08/27 12:56:09;;;;;;;7.55;1.25;;;26.20;54.00;;;;;;5016945;28;20021;-75